PWSweather.com
Personal Weather Stations
Station Observations
PHMDWX
Perry Hall, MD 21236

Perry Hall, MD 21236

Lat: 39.418318, Lon: -76.490039

Elevation: 305

Station Type: Davis Vantage Pro

Latest ConditionsUpdated 8:30:21 PM EDT Wednesday, Jul 1, 2015
Currently Today's Max Today's Min Today's Average
Temperature 76.7°F24.8°C 87.1°F30.6°C 65.5°F18.6°C 75.3°F24.1°C
Dew Point 66.2°F19.0°C 71.2°F21.8°C 64.2°F17.9°C 66.7°F19.3°C
Winds Calm Calm 6.9 mph S11.1 kmh S - 1.9 mph 3.1 kmh
Wind Gusts -- 12.0 mph19.3 kmh - -
Humidity 70% 99% 49% 77%
Pressure 29.82 in1009.8 mb 29.82 in1009.8 mb 29.75 in1007.5 mb -
Precipitation - 0.49 in12.4 mm - -
Hour Temp Dew Point Humidity Winds Wind Gusts Pressure Precip Precip Rate Daily Precip Total
08:30 PM 76.7°F24.8°C 66.2°F19.0°C 70% Calm Calm -- 29.82 in1009.8 mb - 0.00 in0.0 mm 0.49 in12.4 mm
08:00 PM 78.5°F25.8°C 66.2°F19.0°C 66% 0.4 mph WNW0.6 kmh WNW 1.0 mph1.6 kmh 29.81 in1009.5 mb - 0.00 in0.0 mm 0.49 in12.4 mm
07:30 PM 80.3°F26.8°C 67.0°F19.4°C 64% 0.4 mph WNW0.6 kmh WNW 4.0 mph6.4 kmh 29.80 in1009.1 mb - 0.00 in0.0 mm 0.49 in12.4 mm
07:00 PM 82.8°F28.2°C 68.0°F20.0°C 61% 2.0 mph WNW3.2 kmh WNW 3.0 mph4.8 kmh 29.79 in1008.8 mb - 0.00 in0.0 mm 0.49 in12.4 mm
06:30 PM 83.2°F28.4°C 67.4°F19.7°C 59% 1.4 mph WNW2.3 kmh WNW 3.0 mph4.8 kmh 29.79 in1008.8 mb - 0.00 in0.0 mm 0.49 in12.4 mm
06:00 PM 83.6°F28.7°C 67.2°F19.6°C 58% 0.9 mph WNW1.4 kmh WNW 1.0 mph1.6 kmh 29.78 in1008.5 mb - 0.00 in0.0 mm 0.49 in12.4 mm
05:30 PM 85.7°F29.8°C 67.1°F19.5°C 54% 2.3 mph W3.7 kmh W 4.0 mph6.4 kmh 29.78 in1008.5 mb - 0.00 in0.0 mm 0.49 in12.4 mm
05:00 PM 86.3°F30.2°C 65.5°F18.6°C 50% 3.7 mph WNW6.0 kmh WNW 5.0 mph8.0 kmh 29.78 in1008.5 mb - 0.00 in0.0 mm 0.49 in12.4 mm
04:30 PM 86.1°F30.1°C 65.9°F18.8°C 51% 2.3 mph WSW3.7 kmh WSW 6.0 mph9.7 kmh 29.78 in1008.5 mb - 0.00 in0.0 mm 0.49 in12.4 mm
04:00 PM 87.1°F30.6°C 65.6°F18.7°C 49% 3.7 mph WSW6.0 kmh WSW 7.0 mph11.3 kmh 29.78 in1008.5 mb - 0.00 in0.0 mm 0.49 in12.4 mm
03:30 PM 86.5°F30.3°C 67.3°F19.6°C 53% 1.6 mph W2.6 kmh W 6.0 mph9.7 kmh 29.80 in1009.1 mb - 0.00 in0.0 mm 0.49 in12.4 mm
03:00 PM 84.7°F29.3°C 66.2°F19.0°C 54% 6.5 mph W10.5 kmh W 9.0 mph14.5 kmh 29.80 in1009.1 mb - 0.00 in0.0 mm 0.49 in12.4 mm
02:30 PM 84.3°F29.1°C 64.2°F17.9°C 51% 3.1 mph WNW5.0 kmh WNW 5.0 mph8.0 kmh 29.81 in1009.5 mb - 0.00 in0.0 mm 0.49 in12.4 mm
02:00 PM 84.3°F29.1°C 65.3°F18.5°C 53% 4.8 mph WSW7.7 kmh WSW 11.0 mph17.7 kmh 29.80 in1009.1 mb - 0.00 in0.0 mm 0.49 in12.4 mm
01:30 PM 83.6°F28.7°C 66.7°F19.3°C 57% 4.7 mph NW7.6 kmh NW 8.0 mph12.9 kmh 29.81 in1009.5 mb - 0.00 in0.0 mm 0.49 in12.4 mm
01:00 PM 83.0°F28.3°C 66.7°F19.3°C 58% 3.4 mph W5.5 kmh W 8.0 mph12.9 kmh 29.81 in1009.5 mb - 0.00 in0.0 mm 0.49 in12.4 mm
12:30 PM 80.9°F27.2°C 65.7°F18.7°C 60% 1.5 mph S2.4 kmh S 2.0 mph3.2 kmh 29.81 in1009.5 mb - 0.00 in0.0 mm 0.49 in12.4 mm
12:00 PM 79.6°F26.4°C 65.9°F18.8°C 63% 1.3 mph S2.1 kmh S 3.0 mph4.8 kmh 29.81 in1009.5 mb - 0.00 in0.0 mm 0.49 in12.4 mm
11:30 AM 78.1°F25.6°C 66.2°F19.0°C 67% 2.5 mph WSW4.0 kmh WSW 5.0 mph8.0 kmh 29.81 in1009.5 mb - 0.00 in0.0 mm 0.49 in12.4 mm
11:00 AM 76.4°F24.7°C 65.9°F18.8°C 70% 3.9 mph W6.3 kmh W 7.0 mph11.3 kmh 29.80 in1009.1 mb - 0.00 in0.0 mm 0.49 in12.4 mm
10:30 AM 74.9°F23.8°C 66.0°F18.9°C 74% 3.6 mph WSW5.8 kmh WSW 7.0 mph11.3 kmh 29.80 in1009.1 mb - 0.00 in0.0 mm 0.49 in12.4 mm
10:00 AM 72.5°F22.5°C 64.5°F18.1°C 76% 1.5 mph S2.4 kmh S 2.0 mph3.2 kmh 29.79 in1008.8 mb - 0.00 in0.0 mm 0.49 in12.4 mm
09:30 AM 69.7°F20.9°C 65.7°F18.7°C 87% 3.1 mph W5.0 kmh W 6.0 mph9.7 kmh 29.80 in1009.1 mb - 0.00 in0.0 mm 0.49 in12.4 mm
09:00 AM 68.4°F20.2°C 67.5°F19.7°C 97% 0.8 mph W1.3 kmh W 2.0 mph3.2 kmh 29.80 in1009.1 mb - 0.00 in0.0 mm 0.49 in12.4 mm
08:30 AM 67.9°F19.9°C 67.3°F19.6°C 98% 0.2 mph WNW0.3 kmh WNW 5.0 mph8.0 kmh 29.81 in1009.5 mb - 0.00 in0.0 mm 0.49 in12.4 mm
08:00 AM 67.4°F19.7°C 67.1°F19.5°C 99% 0.3 mph SW0.5 kmh SW 1.0 mph1.6 kmh 29.80 in1009.1 mb - 0.00 in0.0 mm 0.49 in12.4 mm
07:30 AM 66.9°F19.4°C 66.6°F19.2°C 99% 0.2 mph NNE0.3 kmh NNE 1.0 mph1.6 kmh 29.80 in1009.1 mb - 0.00 in0.0 mm 0.49 in12.4 mm
07:00 AM 66.3°F19.1°C 66.0°F18.9°C 99% Calm Calm -- 29.79 in1008.8 mb - 0.00 in0.0 mm 0.49 in12.4 mm
06:30 AM 65.8°F18.8°C 65.5°F18.6°C 99% Calm Calm -- 29.78 in1008.5 mb - 0.00 in0.0 mm 0.49 in12.4 mm
06:00 AM 65.5°F18.6°C 64.9°F18.3°C 98% 1.9 mph W3.1 kmh W 6.0 mph9.7 kmh 29.78 in1008.5 mb - 0.00 in0.0 mm 0.49 in12.4 mm
05:30 AM 65.6°F18.7°C 65.0°F18.3°C 98% 1.0 mph WNW1.6 kmh WNW 3.0 mph4.8 kmh 29.78 in1008.5 mb - 0.00 in0.0 mm 0.49 in12.4 mm
05:00 AM 66.0°F18.9°C 65.4°F18.6°C 98% 0.2 mph SSE0.3 kmh SSE 2.0 mph3.2 kmh 29.77 in1008.1 mb - 0.00 in0.0 mm 0.49 in12.4 mm
04:30 AM 66.4°F19.1°C 65.8°F18.8°C 98% 0.3 mph SSE0.5 kmh SSE -- 29.77 in1008.1 mb - 0.00 in0.0 mm 0.49 in12.4 mm
04:00 AM 67.1°F19.5°C 66.5°F19.2°C 98% 0.4 mph SSE0.6 kmh SSE 2.0 mph3.2 kmh 29.77 in1008.1 mb - 0.01 in0.3 mm 0.49 in12.4 mm
03:30 AM 67.4°F19.7°C 66.5°F19.2°C 97% Calm Calm -- 29.76 in1007.8 mb - 0.03 in0.8 mm 0.48 in12.2 mm
03:00 AM 67.8°F19.9°C 66.9°F19.4°C 97% 0.1 mph WSW0.2 kmh WSW 1.0 mph1.6 kmh 29.79 in1008.8 mb - 0.11 in2.8 mm 0.45 in11.4 mm
02:30 AM 67.9°F19.9°C 66.7°F19.3°C 96% 1.1 mph SSW1.8 kmh SSW 4.0 mph6.4 kmh 29.79 in1008.8 mb - 0.09 in2.3 mm 0.34 in8.6 mm
02:00 AM 68.8°F20.4°C 67.3°F19.6°C 95% 6.9 mph S11.1 kmh S 12.0 mph19.3 kmh 29.80 in1009.1 mb - 0.24 in6.1 mm 0.25 in6.4 mm
01:30 AM 71.3°F21.8°C 68.9°F20.5°C 92% 1.7 mph WNW2.7 kmh WNW 3.0 mph4.8 kmh 29.75 in1007.5 mb - 0.01 in0.3 mm 0.01 in0.3 mm
01:00 AM 72.7°F22.6°C 70.9°F21.6°C 94% 2.4 mph WNW3.9 kmh WNW 5.0 mph8.0 kmh 29.76 in1007.8 mb - 0.00 in0.0 mm 0.00 in0.0 mm
12:30 AM 73.0°F22.8°C 71.2°F21.8°C 94% 1.7 mph WNW2.7 kmh WNW 5.0 mph8.0 kmh 29.76 in1007.8 mb - 0.00 in0.0 mm 0.00 in0.0 mm
12:00 AM 73.0°F22.8°C 71.2°F21.8°C 94% 0.3 mph SE0.5 kmh SE 3.0 mph4.8 kmh 29.76 in1007.8 mb - 0.00 in0.0 mm 0.00 in0.0 mm